sensor_id;sensor_type;location;lat;lon;timestamp;pressure;altitude;pressure_sealevel;temperature;humidity
35798;BME280;21918;49.940;7.774;2023-05-25T00:02:17;99436.22;;;17.27;51.26
35798;BME280;21918;49.940;7.774;2023-05-25T00:04:44;99447.66;;;17.22;51.74
35798;BME280;21918;49.940;7.774;2023-05-25T00:07:12;99439.63;;;17.20;51.99
35798;BME280;21918;49.940;7.774;2023-05-25T00:09:39;99441.16;;;17.18;52.16
35798;BME280;21918;49.940;7.774;2023-05-25T00:12:08;99441.72;;;17.23;52.28
35798;BME280;21918;49.940;7.774;2023-05-25T00:14:35;99440.44;;;17.21;52.25
35798;BME280;21918;49.940;7.774;2023-05-25T00:17:04;99437.19;;;17.19;52.44
35798;BME280;21918;49.940;7.774;2023-05-25T00:19:34;99442.69;;;17.15;52.13
35798;BME280;21918;49.940;7.774;2023-05-25T00:22:00;99441.06;;;17.14;52.17
35798;BME280;21918;49.940;7.774;2023-05-25T00:24:27;99437.91;;;17.16;52.37
35798;BME280;21918;49.940;7.774;2023-05-25T00:26:55;99431.50;;;17.15;52.32
35798;BME280;21918;49.940;7.774;2023-05-25T00:29:21;99432.66;;;17.14;52.47
35798;BME280;21918;49.940;7.774;2023-05-25T00:31:48;99427.53;;;17.16;52.19
35798;BME280;21918;49.940;7.774;2023-05-25T00:34:16;99428.44;;;17.20;52.39
35798;BME280;21918;49.940;7.774;2023-05-25T00:36:43;99426.63;;;17.12;52.06
35798;BME280;21918;49.940;7.774;2023-05-25T00:39:12;99422.66;;;17.13;52.57
35798;BME280;21918;49.940;7.774;2023-05-25T00:41:41;99426.09;;;17.22;52.46
35798;BME280;21918;49.940;7.774;2023-05-25T00:44:09;99425.38;;;17.25;52.12
35798;BME280;21918;49.940;7.774;2023-05-25T00:46:36;99428.91;;;17.22;52.09
35798;BME280;21918;49.940;7.774;2023-05-25T00:49:03;99431.69;;;17.22;52.37
35798;BME280;21918;49.940;7.774;2023-05-25T00:51:31;99427.66;;;17.20;52.45
35798;BME280;21918;49.940;7.774;2023-05-25T00:53:58;99426.72;;;17.16;52.27
35798;BME280;21918;49.940;7.774;2023-05-25T00:56:27;99419.66;;;17.06;52.19
35798;BME280;21918;49.940;7.774;2023-05-25T00:58:56;99416.50;;;17.08;52.72
35798;BME280;21918;49.940;7.774;2023-05-25T01:01:27;99417.97;;;17.17;52.25
35798;BME280;21918;49.940;7.774;2023-05-25T01:03:58;99417.97;;;17.17;52.34
35798;BME280;21918;49.940;7.774;2023-05-25T01:06:30;99417.59;;;17.19;52.26
35798;BME280;21918;49.940;7.774;2023-05-25T01:09:02;99420.22;;;17.12;52.41
35798;BME280;21918;49.940;7.774;2023-05-25T01:11:31;99415.09;;;17.14;52.03
35798;BME280;21918;49.940;7.774;2023-05-25T01:13:58;99418.47;;;17.07;52.24
35798;BME280;21918;49.940;7.774;2023-05-25T01:16:24;99420.38;;;17.03;52.32
35798;BME280;21918;49.940;7.774;2023-05-25T01:18:51;99425.91;;;17.00;52.56
35798;BME280;21918;49.940;7.774;2023-05-25T01:21:22;99424.94;;;16.96;52.78
35798;BME280;21918;49.940;7.774;2023-05-25T01:23:58;99424.88;;;16.92;52.96
35798;BME280;21918;49.940;7.774;2023-05-25T01:26:28;99422.97;;;16.96;53.03
35798;BME280;21918;49.940;7.774;2023-05-25T01:28:57;99419.28;;;16.92;52.83
35798;BME280;21918;49.940;7.774;2023-05-25T01:31:27;99419.75;;;16.94;53.12
35798;BME280;21918;49.940;7.774;2023-05-25T01:33:55;99416.94;;;16.94;52.80
35798;BME280;21918;49.940;7.774;2023-05-25T01:36:23;99421.38;;;16.95;52.98
35798;BME280;21918;49.940;7.774;2023-05-25T01:38:51;99424.59;;;16.97;53.29
35798;BME280;21918;49.940;7.774;2023-05-25T01:41:17;99414.69;;;17.00;52.52
35798;BME280;21918;49.940;7.774;2023-05-25T01:43:44;99422.91;;;16.93;52.71
35798;BME280;21918;49.940;7.774;2023-05-25T01:46:18;99426.84;;;16.92;52.79
35798;BME280;21918;49.940;7.774;2023-05-25T01:48:51;99422.31;;;16.87;53.19
35798;BME280;21918;49.940;7.774;2023-05-25T01:51:28;99426.06;;;16.91;53.04
35798;BME280;21918;49.940;7.774;2023-05-25T01:54:01;99421.97;;;16.89;53.21
35798;BME280;21918;49.940;7.774;2023-05-25T01:56:30;99422.44;;;16.91;53.42
35798;BME280;21918;49.940;7.774;2023-05-25T01:59:00;99417.31;;;16.93;53.33
35798;BME280;21918;49.940;7.774;2023-05-25T02:01:30;99416.47;;;16.92;53.48
35798;BME280;21918;49.940;7.774;2023-05-25T02:03:59;99418.28;;;17.00;53.66
35798;BME280;21918;49.940;7.774;2023-05-25T02:06:27;99417.56;;;17.03;53.10
35798;BME280;21918;49.940;7.774;2023-05-25T02:08:54;99422.16;;;16.96;52.79
35798;BME280;21918;49.940;7.774;2023-05-25T02:11:21;99426.50;;;16.93;53.03
35798;BME280;21918;49.940;7.774;2023-05-25T02:13:47;99426.25;;;16.98;52.75
35798;BME280;21918;49.940;7.774;2023-05-25T02:16:14;99433.00;;;16.97;52.92
35798;BME280;21918;49.940;7.774;2023-05-25T02:18:40;99430.19;;;16.97;52.82
35798;BME280;21918;49.940;7.774;2023-05-25T02:21:08;99426.69;;;17.00;52.92
35798;BME280;21918;49.940;7.774;2023-05-25T02:23:36;99423.66;;;17.05;52.72
35798;BME280;21918;49.940;7.774;2023-05-25T02:26:03;99416.31;;;17.01;52.54
35798;BME280;21918;49.940;7.774;2023-05-25T02:28:30;99436.16;;;16.96;52.90
35798;BME280;21918;49.940;7.774;2023-05-25T02:30:56;99432.56;;;16.95;52.83
35798;BME280;21918;49.940;7.774;2023-05-25T02:33:23;99429.47;;;17.00;53.03
35798;BME280;21918;49.940;7.774;2023-05-25T02:35:49;99429.69;;;17.07;53.01
35798;BME280;21918;49.940;7.774;2023-05-25T16:48:54;99440.78;;;26.31;33.31
35798;BME280;21918;49.940;7.774;2023-05-25T16:51:21;99439.94;;;26.31;33.15
35798;BME280;21918;49.940;7.774;2023-05-25T16:53:47;99433.50;;;26.27;33.36
35798;BME280;21918;49.940;7.774;2023-05-25T16:56:14;99427.47;;;26.21;33.09
35798;BME280;21918;49.940;7.774;2023-05-25T16:58:42;99426.72;;;26.17;33.24
35798;BME280;21918;49.940;7.774;2023-05-25T17:01:08;99432.41;;;26.14;33.35
35798;BME280;21918;49.940;7.774;2023-05-25T17:03:36;99432.88;;;26.09;33.85
35798;BME280;21918;49.940;7.774;2023-05-25T17:06:05;99430.88;;;26.06;34.07
35798;BME280;21918;49.940;7.774;2023-05-25T17:08:32;99432.19;;;25.98;34.18
35798;BME280;21918;49.940;7.774;2023-05-25T17:11:00;99424.91;;;25.90;33.67
35798;BME280;21918;49.940;7.774;2023-05-25T17:13:27;99427.78;;;25.83;34.46
35798;BME280;21918;49.940;7.774;2023-05-25T17:15:54;99427.03;;;25.79;34.22
35798;BME280;21918;49.940;7.774;2023-05-25T17:18:20;99429.91;;;25.72;33.76
35798;BME280;21918;49.940;7.774;2023-05-25T17:20:47;99423.88;;;25.66;34.09
35798;BME280;21918;49.940;7.774;2023-05-25T17:23:15;99419.88;;;25.60;34.35
35798;BME280;21918;49.940;7.774;2023-05-25T17:25:41;99417.50;;;25.52;34.53
35798;BME280;21918;49.940;7.774;2023-05-25T17:28:08;99424.41;;;25.47;35.05
35798;BME280;21918;49.940;7.774;2023-05-25T17:30:35;99427.28;;;25.40;35.72
35798;BME280;21918;49.940;7.774;2023-05-25T17:33:02;99429.75;;;25.31;36.10
35798;BME280;21918;49.940;7.774;2023-05-25T17:35:29;99426.94;;;25.24;35.99
35798;BME280;21918;49.940;7.774;2023-05-25T17:37:55;99435.06;;;25.19;36.29
35798;BME280;21918;49.940;7.774;2023-05-25T17:40:23;99424.97;;;25.14;36.19
35798;BME280;21918;49.940;7.774;2023-05-25T17:42:50;99434.75;;;25.10;36.39
35798;BME280;21918;49.940;7.774;2023-05-25T17:45:16;99427.88;;;25.04;36.07
35798;BME280;21918;49.940;7.774;2023-05-25T17:47:43;99437.19;;;24.97;36.58
35798;BME280;21918;49.940;7.774;2023-05-25T17:50:09;99438.47;;;24.89;36.78
35798;BME280;21918;49.940;7.774;2023-05-25T17:52:36;99435.63;;;24.86;36.81
35798;BME280;21918;49.940;7.774;2023-05-25T17:55:04;99446.56;;;24.87;37.25
35798;BME280;21918;49.940;7.774;2023-05-25T17:57:32;99444.94;;;24.86;37.36
35798;BME280;21918;49.940;7.774;2023-05-25T17:59:59;99445.75;;;24.83;37.29
35798;BME280;21918;49.940;7.774;2023-05-25T18:02:26;99449.41;;;24.80;37.21
35798;BME280;21918;49.940;7.774;2023-05-25T18:04:54;99458.34;;;24.75;37.34
35798;BME280;21918;49.940;7.774;2023-05-25T18:07:21;99461.19;;;24.68;37.48
35798;BME280;21918;49.940;7.774;2023-05-25T18:09:47;99458.78;;;24.63;37.97
35798;BME280;21918;49.940;7.774;2023-05-25T18:12:14;99459.97;;;24.62;37.81
35798;BME280;21918;49.940;7.774;2023-05-25T18:14:42;99459.19;;;24.58;38.07
35798;BME280;21918;49.940;7.774;2023-05-25T18:17:08;99462.41;;;24.56;38.41
35798;BME280;21918;49.940;7.774;2023-05-25T18:19:35;99459.19;;;24.51;38.30
35798;BME280;21918;49.940;7.774;2023-05-25T18:22:02;99465.66;;;24.51;38.29
35798;BME280;21918;49.940;7.774;2023-05-25T18:24:29;99463.63;;;24.48;38.32
35798;BME280;21918;49.940;7.774;2023-05-25T18:26:55;99463.66;;;24.45;39.15
35798;BME280;21918;49.940;7.774;2023-05-25T18:29:24;99471.34;;;24.48;39.30
35798;BME280;21918;49.940;7.774;2023-05-25T18:31:52;99467.69;;;24.44;39.41
35798;BME280;21918;49.940;7.774;2023-05-25T18:34:18;99469.31;;;24.38;39.04
35798;BME280;21918;49.940;7.774;2023-05-25T18:36:45;99479.03;;;24.33;39.33
35798;BME280;21918;49.940;7.774;2023-05-25T18:39:12;99479.03;;;24.30;39.22
35798;BME280;21918;49.940;7.774;2023-05-25T18:41:38;99476.59;;;24.21;39.19
35798;BME280;21918;49.940;7.774;2023-05-25T18:44:06;99484.28;;;24.17;39.44
35798;BME280;21918;49.940;7.774;2023-05-25T18:46:33;99481.06;;;24.12;39.25
35798;BME280;21918;49.940;7.774;2023-05-25T18:49:03;99474.59;;;24.11;39.78
35798;BME280;21918;49.940;7.774;2023-05-25T18:51:30;99479.03;;;24.09;39.40
35798;BME280;21918;49.940;7.774;2023-05-25T18:53:58;99487.16;;;24.00;39.45
35798;BME280;21918;49.940;7.774;2023-05-25T18:56:24;99491.97;;;23.96;39.53
35798;BME280;21918;49.940;7.774;2023-05-25T18:58:51;99489.94;;;23.89;39.66
35798;BME280;21918;49.940;7.774;2023-05-25T19:01:19;99493.97;;;23.85;39.60
35798;BME280;21918;49.940;7.774;2023-05-25T19:03:46;99487.88;;;23.83;40.08
35798;BME280;21918;49.940;7.774;2023-05-25T19:06:14;99491.13;;;23.92;39.96
35798;BME280;21918;49.940;7.774;2023-05-25T19:08:40;99492.72;;;23.79;40.37
35798;BME280;21918;49.940;7.774;2023-05-25T19:11:07;99499.19;;;23.72;39.98
35798;BME280;21918;49.940;7.774;2023-05-25T19:13:33;99497.53;;;23.64;40.04
35798;BME280;21918;49.940;7.774;2023-05-25T19:16:00;99506.47;;;23.63;40.15
35798;BME280;21918;49.940;7.774;2023-05-25T19:18:28;99508.03;;;23.60;40.60
35798;BME280;21918;49.940;7.774;2023-05-25T19:20:54;99510.09;;;23.60;40.22
35798;BME280;21918;49.940;7.774;2023-05-25T19:23:23;99509.66;;;23.54;40.34
35798;BME280;21918;49.940;7.774;2023-05-25T19:25:50;99518.94;;;23.51;40.55
35798;BME280;21918;49.940;7.774;2023-05-25T19:28:17;99513.66;;;23.46;40.91
35798;BME280;21918;49.940;7.774;2023-05-25T19:30:43;99520.94;;;23.44;40.66
35798;BME280;21918;49.940;7.774;2023-05-25T19:33:10;99525.78;;;23.43;40.68
35798;BME280;21918;49.940;7.774;2023-05-25T19:35:36;99528.19;;;23.34;40.36
35798;BME280;21918;49.940;7.774;2023-05-25T19:38:05;99527.72;;;23.29;40.91
35798;BME280;21918;49.940;7.774;2023-05-25T19:40:33;99533.78;;;23.27;40.65
35798;BME280;21918;49.940;7.774;2023-05-25T19:43:00;99536.22;;;23.25;41.19
35798;BME280;21918;49.940;7.774;2023-05-25T19:45:26;99545.84;;;23.21;40.89
35798;BME280;21918;49.940;7.774;2023-05-25T19:47:53;99549.88;;;23.20;41.52
35798;BME280;21918;49.940;7.774;2023-05-25T19:50:20;99558.72;;;23.15;41.02
35798;BME280;21918;49.940;7.774;2023-05-25T19:52:46;99549.00;;;23.05;40.99
35798;BME280;21918;49.940;7.774;2023-05-25T19:55:13;99552.63;;;23.02;41.20
35798;BME280;21918;49.940;7.774;2023-05-25T19:57:41;99554.63;;;23.02;41.30
35798;BME280;21918;49.940;7.774;2023-05-25T20:00:08;99560.25;;;23.02;41.51
35798;BME280;21918;49.940;7.774;2023-05-25T20:02:35;99563.09;;;23.02;41.95
35798;BME280;21918;49.940;7.774;2023-05-25T20:05:02;99570.38;;;23.03;41.84
35798;BME280;21918;49.940;7.774;2023-05-25T20:07:30;99569.97;;;23.01;41.70
35798;BME280;21918;49.940;7.774;2023-05-25T20:09:56;99569.53;;;22.95;41.81
35798;BME280;21918;49.940;7.774;2023-05-25T20:12:23;99569.47;;;22.88;41.59
35798;BME280;21918;49.940;7.774;2023-05-25T20:14:51;99570.66;;;22.84;41.67
35798;BME280;21918;49.940;7.774;2023-05-25T20:17:18;99575.44;;;22.73;41.86
35798;BME280;21918;49.940;7.774;2023-05-25T20:19:45;99577.00;;;22.67;41.63
35798;BME280;21918;49.940;7.774;2023-05-25T20:22:12;99584.19;;;22.61;41.98
35798;BME280;21918;49.940;7.774;2023-05-25T20:24:38;99581.00;;;22.62;41.99
35798;BME280;21918;49.940;7.774;2023-05-25T20:27:05;99576.94;;;22.60;42.30
35798;BME280;21918;49.940;7.774;2023-05-25T20:29:32;99578.59;;;22.64;42.63
35798;BME280;21918;49.940;7.774;2023-05-25T20:32:00;99586.25;;;22.64;42.96
35798;BME280;21918;49.940;7.774;2023-05-25T20:34:27;99578.56;;;22.61;42.90
35798;BME280;21918;49.940;7.774;2023-05-25T20:36:53;99593.06;;;22.56;43.17
35798;BME280;21918;49.940;7.774;2023-05-25T20:39:20;99586.56;;;22.52;42.94
35798;BME280;21918;49.940;7.774;2023-05-25T20:41:47;99594.97;;;22.45;43.12
35798;BME280;21918;49.940;7.774;2023-05-25T20:44:13;99598.16;;;22.43;43.09
35798;BME280;21918;49.940;7.774;2023-05-25T20:46:40;99596.13;;;22.43;43.24
35798;BME280;21918;49.940;7.774;2023-05-25T20:49:08;99601.81;;;22.47;43.61
35798;BME280;21918;49.940;7.774;2023-05-25T20:51:35;99594.53;;;22.42;43.52
35798;BME280;21918;49.940;7.774;2023-05-25T20:54:01;99596.06;;;22.36;43.89
35798;BME280;21918;49.940;7.774;2023-05-25T20:56:28;99590.03;;;22.38;44.06
35798;BME280;21918;49.940;7.774;2023-05-25T20:58:55;99601.00;;;22.43;44.12
35798;BME280;21918;49.940;7.774;2023-05-25T21:01:22;99603.38;;;22.41;44.47
35798;BME280;21918;49.940;7.774;2023-05-25T21:03:48;99605.78;;;22.39;44.22
35798;BME280;21918;49.940;7.774;2023-05-25T21:06:16;99602.47;;;22.30;43.94
35798;BME280;21918;49.940;7.774;2023-05-25T21:08:43;99599.22;;;22.28;44.20
35798;BME280;21918;49.940;7.774;2023-05-25T21:11:10;99605.69;;;22.28;44.31
35798;BME280;21918;49.940;7.774;2023-05-25T21:13:37;99604.75;;;22.17;44.17
35798;BME280;21918;49.940;7.774;2023-05-25T21:16:03;99602.25;;;22.09;44.38
35798;BME280;21918;49.940;7.774;2023-05-25T21:18:30;99610.66;;;22.02;44.45
35798;BME280;21918;49.940;7.774;2023-05-25T21:20:57;99610.56;;;21.95;44.06
35798;BME280;21918;49.940;7.774;2023-05-25T21:23:25;99612.91;;;21.86;44.19
35798;BME280;21918;49.940;7.774;2023-05-25T21:25:52;99618.50;;;21.82;44.63
35798;BME280;21918;49.940;7.774;2023-05-25T21:28:19;99622.53;;;21.81;44.65
35798;BME280;21918;49.940;7.774;2023-05-25T21:30:46;99623.72;;;21.80;44.51
35798;BME280;21918;49.940;7.774;2023-05-25T21:33:12;99626.50;;;21.77;44.93
35798;BME280;21918;49.940;7.774;2023-05-25T21:35:39;99626.06;;;21.75;44.90
35798;BME280;21918;49.940;7.774;2023-05-25T21:38:05;99625.19;;;21.71;44.80
35798;BME280;21918;49.940;7.774;2023-05-25T21:40:34;99633.16;;;21.65;45.04
35798;BME280;21918;49.940;7.774;2023-05-25T21:43:01;99626.31;;;21.66;45.40
35798;BME280;21918;49.940;7.774;2023-05-25T21:45:27;99630.78;;;21.67;45.15
35798;BME280;21918;49.940;7.774;2023-05-25T21:47:54;99640.41;;;21.66;45.58
35798;BME280;21918;49.940;7.774;2023-05-25T21:50:20;99637.28;;;21.71;45.84
35798;BME280;21918;49.940;7.774;2023-05-25T21:52:47;99648.56;;;21.71;45.82
35798;BME280;21918;49.940;7.774;2023-05-25T21:55:14;99641.25;;;21.67;45.70
35798;BME280;21918;49.940;7.774;2023-05-25T21:57:42;99648.41;;;21.61;45.29
35798;BME280;21918;49.940;7.774;2023-05-25T22:00:09;99648.31;;;21.54;45.99
35798;BME280;21918;49.940;7.774;2023-05-25T22:02:36;99647.09;;;21.51;45.77
35798;BME280;21918;49.940;7.774;2023-05-25T22:05:04;99645.38;;;21.43;45.74
35798;BME280;21918;49.940;7.774;2023-05-25T22:07:30;99649.28;;;21.35;45.87
35798;BME280;21918;49.940;7.774;2023-05-25T22:09:57;99651.25;;;21.31;45.80
35798;BME280;21918;49.940;7.774;2023-05-25T22:12:24;99651.19;;;21.28;45.92
35798;BME280;21918;49.940;7.774;2023-05-25T22:14:52;99650.31;;;21.24;45.78
35798;BME280;21918;49.940;7.774;2023-05-25T22:17:19;99655.16;;;21.23;45.76
35798;BME280;21918;49.940;7.774;2023-05-25T22:19:46;99659.59;;;21.24;45.77
35798;BME280;21918;49.940;7.774;2023-05-25T22:22:13;99650.38;;;21.27;46.15
35798;BME280;21918;49.940;7.774;2023-05-25T22:24:40;99649.19;;;21.28;45.88
35798;BME280;21918;49.940;7.774;2023-05-25T22:27:06;99648.75;;;21.26;45.69
35798;BME280;21918;49.940;7.774;2023-05-25T22:29:33;99650.31;;;21.24;45.44
35798;BME280;21918;49.940;7.774;2023-05-25T22:32:01;99651.97;;;21.25;45.45
35798;BME280;21918;49.940;7.774;2023-05-25T22:34:28;99659.97;;;21.23;45.62
35798;BME280;21918;49.940;7.774;2023-05-25T22:36:54;99654.72;;;21.21;45.46
35798;BME280;21918;49.940;7.774;2023-05-25T22:39:21;99661.94;;;21.19;45.38
35798;BME280;21918;49.940;7.774;2023-05-25T22:41:47;99648.22;;;21.17;45.43
35798;BME280;21918;49.940;7.774;2023-05-25T22:44:14;99656.69;;;21.17;45.62
35798;BME280;21918;49.940;7.774;2023-05-25T22:46:41;99655.06;;;21.16;45.00
35798;BME280;21918;49.940;7.774;2023-05-25T22:49:08;99663.06;;;21.14;45.40
35798;BME280;21918;49.940;7.774;2023-05-25T22:51:35;99659.41;;;21.10;45.65
35798;BME280;21918;49.940;7.774;2023-05-25T22:54:02;99656.13;;;21.08;46.09
35798;BME280;21918;49.940;7.774;2023-05-25T22:56:28;99662.91;;;21.04;46.34
35798;BME280;21918;49.940;7.774;2023-05-25T22:58:55;99664.94;;;21.03;46.40
35798;BME280;21918;49.940;7.774;2023-05-25T23:01:21;99662.97;;;21.07;46.47
35798;BME280;21918;49.940;7.774;2023-05-25T23:03:48;99669.34;;;21.04;46.49
35798;BME280;21918;49.940;7.774;2023-05-25T23:06:16;99666.09;;;21.02;46.69
35798;BME280;21918;49.940;7.774;2023-05-25T23:08:42;99663.25;;;20.99;46.56
35798;BME280;21918;49.940;7.774;2023-05-25T23:11:10;99659.56;;;20.95;46.34
35798;BME280;21918;49.940;7.774;2023-05-25T23:13:37;99663.47;;;20.90;46.40
35798;BME280;21918;49.940;7.774;2023-05-25T23:16:05;99667.03;;;20.87;46.70
35798;BME280;21918;49.940;7.774;2023-05-25T23:18:32;99649.78;;;20.89;46.69
35798;BME280;21918;49.940;7.774;2023-05-25T23:20:59;99662.75;;;20.93;46.79
35798;BME280;21918;49.940;7.774;2023-05-25T23:23:27;99662.75;;;20.93;46.55
35798;BME280;21918;49.940;7.774;2023-05-25T23:25:53;99663.03;;;20.88;46.53
35798;BME280;21918;49.940;7.774;2023-05-25T23:28:21;99654.59;;;20.88;46.73
35798;BME280;21918;49.940;7.774;2023-05-25T23:30:48;99649.03;;;20.92;46.62
35798;BME280;21918;49.940;7.774;2023-05-25T23:33:14;99648.19;;;20.91;46.78
35798;BME280;21918;49.940;7.774;2023-05-25T23:35:42;99656.38;;;20.96;46.90
35798;BME280;21918;49.940;7.774;2023-05-25T23:38:09;99658.81;;;20.98;46.92
35798;BME280;21918;49.940;7.774;2023-05-25T23:40:37;99653.94;;;20.95;47.02
35798;BME280;21918;49.940;7.774;2023-05-25T23:43:03;99664.72;;;20.93;46.97
35798;BME280;21918;49.940;7.774;2023-05-25T23:45:30;99660.22;;;20.88;47.06
35798;BME280;21918;49.940;7.774;2023-05-25T23:47:58;99654.53;;;20.85;47.01
35798;BME280;21918;49.940;7.774;2023-05-25T23:50:24;99662.63;;;20.86;47.24
35798;BME280;21918;49.940;7.774;2023-05-25T23:52:51;99666.22;;;20.87;47.46
35798;BME280;21918;49.940;7.774;2023-05-25T23:55:17;99663.78;;;20.85;47.24
35798;BME280;21918;49.940;7.774;2023-05-25T23:57:45;99663.38;;;20.83;47.36
